KGBD

Great Bend Municipal Airport

Airport
ICAO code
KGBD
IATA Code
GBD
Summary
ICAO Region
NAM
ICAO Territory
Location

Great Bend, Kansas

Serving
Great Bend
Elevation
1887 ft
Coordinates
38° 20' 39" N , 98° 51' 33" W
KCC
Airport CFIT
Altimeter Temperature Error Correction
Metar
KGBD 181656Z AUTO 36026G30KT 10SM OVC018 09/04 A3015 RMK AO2 PK WND 36035/1613 SLP206 T00890039

Great Bend Municipal Airport is a public-use airport located 7 km west of the central business district of Great Bend, a city in Barton County, Kansas, USA.

Airport map

Aerial View

SKYbrary Partners:

Safety knowledge contributed by: